CVB weather

Castroville Municipal Airport
Castroville, Texas, United States

Public forecast

Using degrees Fahrenheit for public forecast. Weather courtesy of forecast.io.

METAR (pilot weather report)

Retrieved 2018/07/15 22:35 UTC (0 seconds ago):

KCVB 152235Z AUTO 15010G18KT 5SM HZ CLR 36/14 A2995 RMK AO2 T03580144

TAF (pilot weather forecast)

Closest forecast is Lackland Air Force Base, 14.3 nm (26.6 km) E. Retrieved 2018/07/15 18:03 UTC (4 hours ago):

TAF KSKF 151800Z 1518/1624 17010G15KT 9999 FEW080 QNH2989INS BECMG 1602/1603 15012KT 9999 FEW040 QNH2994INS BECMG 1615/1616 16012G18KT 9999 FEW020 QNH3002INS BECMG 1617/1618 16012G18KT 9999 SKC QNH2993INS TX36/1521Z TN24/1612Z